ADDS METAR Data INFO
IDs: Format: Raw Decoded Include TAF

Data at: 0935 UTC 11 Dec 2017

PABV 110856Z AUTO 05016G20KT 9SM -RA BKN040 OVC047 04/02 A2900 RMK AO2 PRESFR SLP830 P0002 60002 T00390017 400611028 56048 $
PABV 110756Z AUTO 04015G21KT 10SM -RA FEW050 OVC060 04/02 A2905 RMK AO2 PK WND 04026/0704 SLP845 P0000 T00390017 $
PABV 110656Z AUTO 04021G27KT 10SM -RA OVC070 04/01 A2908 RMK AO2 PK WND 04027/0655 SLP856 P0000 T00390006 $
PABV 110556Z AUTO 04017G24KT 10SM -RA OVC070 04/01 A2915 RMK AO2 PRESFR SLP878 P0000 60000 T00440011 10061 20011 58078 $
PABV 110456Z AUTO 03014KT 10SM -RA BKN075 BKN090 04/01 A2922 RMK AO2 SLP901 P0000 T00440011 $
PABV 110356Z AUTO 04012KT 10SM -RA BKN070 BKN085 05/M01 A2931 RMK AO2 RAB46 SLP934 P0000 T00501006 $
PABV 110256Z AUTO 04012KT 10SM SCT075 OVC090 05/M02 A2938 RMK AO2 PRESFR SLP956 T00501017 56067 $
PABV 110156Z AUTO 04011KT 10SM OVC090 06/M01 A2944 RMK AO2 SLP978 T00561011 $
PABV 110056Z AUTO 36005KT 10SM CLR 03/M02 A2951 RMK AO2 SLP000 T00281017 $
PABV 102356Z AUTO 00000KT 10SM CLR 01/00 A2957 RMK AO2 SLP023 T00060000 10017 21022 58046 FZRANO $
PABV 102256Z AUTO 00000KT 10SM CLR 00/M01 A2965 RMK AO2 SLP049 T00001011 FZRANO $
PABV 102156Z AUTO 14006KT 10SM CLR M01/M02 A2970 RMK AO2 SLP066 T10111017 FZRANO $
PABV 102056Z AUTO 16005KT 10SM CLR M01/M02 A2971 RMK AO2 SLP070 T10111017 50002 FZRANO $
PABV 101956Z AUTO 00000KT 10SM CLR M01/M02 A2972 RMK AO2 SLP072 T10111017 FZRANO $
PABV 101856Z AUTO 00000KT 10SM CLR M01/M02 A2971 RMK AO2 SLP068 T10061017 FZRANO $
PABV 101756Z AUTO 15006KT 10SM CLR M01/M02 A2970 RMK AO2 SLP067 T10111017 10022 21022 51039 FZRANO $
PABV 101656Z AUTO 00000KT 10SM SCT080 BKN100 00/M01 A2967 RMK AO2 SLP056 T00001011 FZRANO $
PABV 101556Z AUTO VRB06KT 10SM BKN075 OVC095 00/M01 A2965 RMK AO2 PRESRR SLP048 T00001006 FZRANO $
PABV 101456Z AUTO VRB03KT 10SM OVC080 M01/M01 A2959 RMK AO2 PRESRR SLP028 T10061011 53039 FZRANO $
PABV 101356Z AUTO 09003KT 10SM OVC080 M01/M02 A2954 RMK AO2 SLP012 T10111017 FZRANO $
PABV 101256Z AUTO 00000KT 10SM OVC080 M02/M03 A2951 RMK AO2 SLP001 T10221028 FZRANO $
PABV 101156Z AUTO 11003KT 10SM BKN085 M02/M03 A2948 RMK AO2 SLP990 60000 T10221028 11022 21033 53028 FZRANO $
PABV 101056Z AUTO 00000KT 10SM SCT075 BKN090 M03/M03 A2944 RMK AO2 SNE33 SLP976 P0000 T10281033 FZRANO $
PABV 100956Z AUTO 00000KT 9SM -SN OVC070 M02/M03 A2942 RMK AO2 UPB0859E05SNE0859B05 SLP969 P0000 T10221028 FZRANO $
PABV 100856Z AUTO 24004KT 9SM -SN BKN060 OVC080 M02/M03 A2939 RMK AO2 UPB04E12SNE04B12 SLP962 P0000 60000 T10221028 410221078 53009 FZRANO $
PABV 100756Z AUTO 00000KT 10SM -SN OVC070 M02/M03 A2938 RMK AO2 UPB46E54SNB16E46B54 SLP958 P0000 T10221028 FZRANO $
PABV 100656Z AUTO 00000KT 10SM FEW080 M03/M04 A2937 RMK AO2 SLP953 T10281039 FZRANO $
PABV 100556Z AUTO 00000KT 10SM BKN120 M03/M04 A2937 RMK AO2 SLP953 T10281039 11028 21044 56016 FZRANO $
PABV 100456Z AUTO 19004KT 10SM BKN090 OVC110 M03/M04 A2938 RMK AO2 SLP958 T10281039 FZRANO $
PABV 100356Z AUTO 20003KT 10SM FEW120 M03/M04 A2939 RMK AO2 SLP960 T10331039 FZRANO $
PABV 100256Z AUTO 00000KT 10SM CLR M04/M05 A2941 RMK AO2 SLP969 T10441050 58039 FZRANO $
PABV 100156Z AUTO 21004KT 10SM CLR M04/M04 A2946 RMK AO2 SLP984 T10391044 FZRANO $
PABV 100056Z AUTO 19004KT 10SM CLR M04/M04 A2948 RMK AO2 SLP993 T10391044 FZRANO $
PABV 092356Z AUTO 19003KT 10SM CLR M03/M04 A2953 RMK AO2 SLP007 T10331039 11033 21072 58034 FZRANO $
PABV 092256Z AUTO 20008KT 10SM CLR M03/M04 A2957 RMK AO2 SLP022 T10331044 FZRANO $
PABV 092156Z AUTO 19006KT 10SM CLR M05/M06 A2961 RMK AO2 SLP035 T10501056 FZRANO $